createdAt,value
2024-01-28T00:00:28.201Z,1.40
2024-01-28T00:02:56.780Z,1.31
2024-01-28T00:05:25.509Z,1.15
2024-01-28T00:07:54.018Z,1.02
2024-01-28T00:10:22.607Z,0.95
2024-01-28T00:12:51.298Z,0.90
2024-01-28T00:15:19.948Z,0.78
2024-01-28T00:17:48.558Z,0.61
2024-01-28T00:20:17.157Z,0.53
2024-01-28T00:22:45.763Z,0.39
2024-01-28T00:25:14.357Z,0.26
2024-01-28T00:27:43.001Z,0.12
2024-01-28T00:30:11.985Z,0.08
2024-01-28T00:32:43.137Z,-0.03
2024-01-28T00:35:11.971Z,-0.05
2024-01-28T00:37:40.900Z,-0.14
2024-01-28T00:40:10.726Z,-0.29
2024-01-28T00:42:39.438Z,-0.30
2024-01-28T00:45:08.608Z,-0.30
2024-01-28T00:47:37.214Z,-0.40
2024-01-28T00:50:07.057Z,-0.36
2024-01-28T00:52:35.671Z,-0.22
2024-01-28T00:55:03.819Z,-0.26
2024-01-28T00:57:32.484Z,-0.16
2024-01-28T01:00:00.517Z,-0.14
2024-01-28T01:02:29.078Z,-0.11
2024-01-28T01:04:57.905Z,-0.17
2024-01-28T01:07:28.042Z,-0.19
2024-01-28T01:09:56.941Z,-0.23
2024-01-28T01:12:25.869Z,-0.27
2024-01-28T01:14:54.669Z,-0.28
2024-01-28T01:17:23.251Z,-0.39
2024-01-28T01:19:51.967Z,-0.41
2024-01-28T01:22:21.289Z,-0.56
2024-01-28T01:24:49.956Z,-0.71
2024-01-28T01:27:18.617Z,-0.72
2024-01-28T01:29:47.286Z,-0.68
2024-01-28T01:32:15.830Z,-0.70
2024-01-28T01:34:44.464Z,-0.67
2024-01-28T01:37:13.133Z,-0.59
2024-01-28T01:39:41.811Z,-0.49
2024-01-28T01:42:10.660Z,-0.47
2024-01-28T01:44:39.287Z,-0.35
2024-01-28T01:47:08.032Z,-0.27
2024-01-28T01:49:36.794Z,-0.26
2024-01-28T01:52:07.023Z,-0.32
2024-01-28T01:54:36.419Z,-0.27
2024-01-28T01:57:05.668Z,-0.24
2024-01-28T01:59:35.182Z,-0.23
2024-01-28T02:02:04.893Z,-0.20
2024-01-28T02:04:32.951Z,-0.23
2024-01-28T02:07:01.650Z,-0.29
2024-01-28T02:09:31.064Z,-0.37
2024-01-28T02:11:59.845Z,-0.34
2024-01-28T02:14:34.077Z,-0.40
2024-01-28T02:17:03.868Z,-0.43
2024-01-28T02:19:32.524Z,-0.52
2024-01-28T02:22:01.191Z,-0.62
2024-01-28T02:24:29.958Z,-0.11
2024-01-28T02:26:58.582Z,-0.32
2024-01-28T02:29:27.107Z,-0.46
2024-01-28T02:31:55.640Z,-0.53
2024-01-28T02:34:24.801Z,-0.57
2024-01-28T02:36:53.464Z,-0.62
2024-01-28T02:39:22.138Z,-0.79
2024-01-28T02:41:50.822Z,-0.76
2024-01-28T02:44:19.317Z,-0.81
2024-01-28T02:46:47.827Z,-0.82
2024-01-28T02:49:16.582Z,-0.95
2024-01-28T02:51:48.286Z,-0.78
2024-01-28T02:54:17.183Z,-0.49
2024-01-28T02:56:46.325Z,-0.06
2024-01-28T02:59:16.179Z,0.01
2024-01-28T03:01:48.768Z,0.02
2024-01-28T03:04:17.964Z,-0.10
2024-01-28T03:06:46.805Z,-0.19
2024-01-28T03:09:15.766Z,-0.30
2024-01-28T03:11:44.394Z,-0.38
2024-01-28T03:14:13.438Z,-0.40
2024-01-28T03:16:41.954Z,-0.52
2024-01-28T03:19:10.759Z,-0.56
2024-01-28T03:21:39.347Z,-0.49
2024-01-28T03:24:08.332Z,-0.43
2024-01-28T03:26:37.621Z,-0.44
2024-01-28T03:29:09.742Z,-0.40
2024-01-28T03:31:38.531Z,-0.44
2024-01-28T03:34:07.183Z,-0.50
2024-01-28T03:36:35.888Z,-0.57
2024-01-28T03:39:07.135Z,-0.61
2024-01-28T03:41:35.692Z,-0.36
2024-01-28T03:44:04.306Z,-0.31
2024-01-28T03:46:32.929Z,-0.18
2024-01-28T03:49:03.116Z,-0.10
2024-01-28T03:51:31.792Z,-0.02
2024-01-28T03:54:00.547Z,-0.06
2024-01-28T03:56:29.084Z,0.04
2024-01-28T03:58:57.649Z,-0.04
2024-01-28T04:01:34.011Z,-0.08
2024-01-28T04:04:03.106Z,-0.16
2024-01-28T04:06:31.841Z,-0.11
2024-01-28T04:09:00.657Z,0.02
2024-01-28T04:11:30.423Z,0.04
2024-01-28T04:13:59.227Z,0.09
2024-01-28T04:16:28.586Z,0.25
2024-01-28T04:19:00.263Z,0.30
2024-01-28T04:21:31.362Z,0.29
2024-01-28T04:24:00.084Z,0.31
2024-01-28T04:26:29.672Z,0.33
2024-01-28T04:28:58.188Z,0.29
2024-01-28T04:31:29.165Z,0.23
2024-01-28T04:33:57.781Z,0.24
2024-01-28T04:36:28.549Z,0.25
2024-01-28T04:38:57.224Z,0.24
2024-01-28T04:41:25.764Z,0.28
2024-01-28T04:43:54.269Z,0.44
2024-01-28T04:46:22.946Z,0.56
2024-01-28T04:48:51.602Z,0.66
2024-01-28T04:51:20.389Z,0.69
2024-01-28T04:53:49.026Z,0.73
2024-01-28T04:56:17.690Z,0.68
2024-01-28T04:58:46.231Z,0.61
2024-01-28T05:01:14.985Z,0.62
2024-01-28T05:03:43.680Z,0.57
2024-01-28T05:06:12.409Z,0.50
2024-01-28T05:08:41.138Z,0.59
2024-01-28T05:11:09.624Z,0.52
2024-01-28T05:13:38.644Z,0.50
2024-01-28T05:16:07.882Z,0.57
2024-01-28T05:18:36.517Z,0.57
2024-01-28T05:21:05.357Z,0.51
2024-01-28T05:23:33.980Z,0.48
2024-01-28T05:26:03.042Z,0.35
2024-01-28T05:28:32.665Z,0.48
2024-01-28T05:31:01.473Z,0.54
2024-01-28T05:33:31.055Z,0.58
2024-01-28T05:36:00.198Z,0.51
2024-01-28T05:38:30.114Z,0.58
2024-01-28T05:40:59.498Z,0.55
2024-01-28T05:43:28.063Z,0.47
2024-01-28T05:45:56.693Z,0.44
2024-01-28T05:48:25.486Z,0.40
2024-01-28T05:50:54.143Z,0.37
2024-01-28T05:53:22.770Z,0.46
2024-01-28T05:55:51.287Z,0.53
2024-01-28T05:58:19.895Z,0.64
2024-01-28T06:00:48.974Z,0.64
2024-01-28T06:03:17.323Z,0.50
2024-01-28T06:05:45.869Z,0.37
2024-01-28T06:08:16.426Z,0.40
2024-01-28T06:10:45.063Z,0.28
2024-01-28T06:13:13.665Z,0.12
2024-01-28T06:15:42.342Z,0.05
2024-01-28T06:18:11.018Z,-0.03
2024-01-28T06:20:39.684Z,-0.12
2024-01-28T06:23:08.256Z,-0.11
2024-01-28T06:25:36.813Z,-0.14
2024-01-28T06:28:05.815Z,-0.11
2024-01-28T06:30:38.030Z,-0.06
2024-01-28T06:33:07.219Z,0.08
2024-01-28T06:35:35.806Z,0.30
2024-01-28T06:38:04.564Z,0.41
2024-01-28T06:40:33.634Z,0.39
2024-01-28T06:43:02.202Z,0.30
2024-01-28T06:45:30.928Z,0.27
2024-01-28T06:47:59.558Z,0.24
2024-01-28T06:50:28.154Z,0.37
2024-01-28T06:52:56.795Z,0.46
2024-01-28T06:55:25.468Z,0.61
2024-01-28T06:57:54.041Z,0.62
2024-01-28T07:00:22.792Z,0.53
2024-01-28T07:02:53.106Z,0.52
2024-01-28T07:05:21.779Z,0.44
2024-01-28T07:07:49.990Z,0.39
2024-01-28T07:10:18.622Z,0.38
2024-01-28T07:12:47.417Z,0.58
2024-01-28T07:15:16.146Z,0.55
2024-01-28T07:17:44.990Z,0.46
2024-01-28T07:20:13.619Z,0.49
2024-01-28T07:22:42.268Z,0.57
2024-01-28T07:25:11.238Z,0.66
2024-01-28T07:27:39.781Z,0.64
2024-01-28T07:30:09.610Z,0.71
2024-01-28T07:32:38.252Z,0.93
2024-01-28T07:35:08.362Z,1.03
2024-01-28T07:37:38.234Z,0.92
2024-01-28T07:40:07.959Z,0.87
2024-01-28T07:42:36.816Z,0.86
2024-01-28T07:45:06.283Z,0.90
2024-01-28T07:47:34.890Z,0.81
2024-01-28T07:50:03.781Z,0.72
2024-01-28T07:52:32.488Z,0.64
2024-01-28T07:55:01.015Z,0.57
2024-01-28T07:57:29.955Z,0.60
2024-01-28T07:59:58.603Z,0.53
2024-01-28T08:02:27.259Z,0.49
2024-01-28T08:04:57.361Z,0.41
2024-01-28T08:07:26.816Z,0.44
2024-01-28T08:09:55.423Z,0.49
2024-01-28T08:12:23.976Z,0.41
2024-01-28T08:14:53.810Z,0.37
2024-01-28T08:17:22.639Z,0.30
2024-01-28T08:19:51.372Z,0.36
2024-01-28T08:22:19.998Z,0.36
2024-01-28T08:24:48.732Z,0.30
2024-01-28T08:27:17.413Z,0.29
2024-01-28T08:29:46.191Z,0.39
2024-01-28T08:32:14.775Z,0.38
2024-01-28T08:34:43.401Z,0.33
2024-01-28T08:37:12.227Z,0.35
2024-01-28T08:39:40.679Z,0.29
2024-01-28T08:42:09.399Z,0.21
2024-01-28T08:44:38.267Z,0.23
2024-01-28T08:47:06.810Z,0.17
2024-01-28T08:49:35.453Z,0.09
2024-01-28T08:52:04.203Z,-0.06
2024-01-28T08:54:32.412Z,-0.14
2024-01-28T08:57:01.526Z,-0.19
2024-01-28T08:59:30.135Z,-0.21
2024-01-28T09:02:00.236Z,-0.15
2024-01-28T09:04:28.959Z,-0.08
2024-01-28T09:06:57.838Z,-0.04
2024-01-28T09:09:28.676Z,-0.13
2024-01-28T09:11:58.865Z,-0.21
2024-01-28T09:14:28.755Z,-0.18
2024-01-28T09:16:57.404Z,-0.25
2024-01-28T09:19:26.004Z,-0.30
2024-01-28T09:21:54.500Z,-0.32
2024-01-28T09:24:23.170Z,-0.48
2024-01-28T09:26:51.884Z,-0.43
2024-01-28T09:29:21.050Z,-0.40
2024-01-28T09:31:50.180Z,-0.39
2024-01-28T09:34:18.954Z,-0.45
2024-01-28T09:36:47.673Z,-0.66
2024-01-28T09:39:17.564Z,-0.62
2024-01-28T09:41:49.133Z,-0.66
2024-01-28T09:44:18.192Z,-0.72
2024-01-28T09:46:47.287Z,-0.75
2024-01-28T09:49:18.288Z,-0.80
2024-01-28T09:51:47.232Z,-0.93
2024-01-28T09:54:15.876Z,-0.98
2024-01-28T09:56:45.270Z,-1.05
2024-01-28T09:59:16.556Z,-1.13
2024-01-28T10:01:46.535Z,-1.29
2024-01-28T10:04:18.409Z,-1.37
2024-01-28T10:06:49.765Z,-1.50
2024-01-28T10:09:18.779Z,-1.59
2024-01-28T10:11:47.685Z,-1.68
2024-01-28T10:14:16.425Z,-1.70
2024-01-28T10:16:47.068Z,-1.85
2024-01-28T10:19:16.016Z,-1.94
2024-01-28T10:21:47.576Z,-1.97
2024-01-28T10:24:18.327Z,-1.99
2024-01-28T10:26:47.447Z,-2.13
2024-01-28T10:29:16.946Z,-2.20
2024-01-28T10:31:45.553Z,-2.24
2024-01-28T10:34:14.200Z,-2.28
2024-01-28T10:36:47.689Z,-2.21
2024-01-28T10:39:17.624Z,-2.43
2024-01-28T10:41:47.417Z,-2.44
2024-01-28T10:44:17.902Z,-2.45
2024-01-28T10:46:48.522Z,-2.46
2024-01-28T10:49:27.858Z,-2.52
2024-01-28T10:51:59.988Z,-2.67
2024-01-28T10:54:29.930Z,-2.64
2024-01-28T10:56:59.321Z,-2.65
2024-01-28T10:59:28.981Z,-2.63
2024-01-28T11:01:58.052Z,-2.70
2024-01-28T11:04:26.989Z,-2.68
2024-01-28T11:06:56.940Z,-2.72
2024-01-28T11:09:26.091Z,-2.68
2024-01-28T11:11:54.655Z,-2.65
2024-01-28T11:14:22.640Z,-2.60
2024-01-28T11:16:51.386Z,-2.57
2024-01-28T11:19:20.174Z,-2.49
2024-01-28T11:21:55.361Z,-2.47
2024-01-28T11:24:24.275Z,-2.37
2024-01-28T11:26:52.821Z,-2.38
2024-01-28T11:29:21.420Z,-2.36
2024-01-28T11:31:50.037Z,-2.34
2024-01-28T11:34:23.677Z,-2.29
2024-01-28T11:36:55.151Z,-2.35
2024-01-28T11:39:42.681Z,-2.34
2024-01-28T11:42:11.771Z,-2.38
2024-01-28T11:44:42.848Z,-2.36
2024-01-28T11:47:15.769Z,-2.39
2024-01-28T11:49:47.187Z,-2.45
2024-01-28T11:52:15.966Z,-2.44
2024-01-28T11:54:47.045Z,-2.50
2024-01-28T11:57:15.729Z,-2.65
2024-01-28T11:59:44.328Z,-2.72
2024-01-28T12:02:14.478Z,-2.73
2024-01-28T12:04:43.289Z,-2.79
2024-01-28T12:07:11.990Z,-2.75
2024-01-28T12:09:41.188Z,-2.66
2024-01-28T12:12:10.359Z,-2.57
2024-01-28T12:14:39.026Z,-2.61
2024-01-28T12:17:07.699Z,-2.55
2024-01-28T12:19:40.138Z,-2.55
2024-01-28T12:22:14.937Z,-2.51
2024-01-28T12:24:49.848Z,-2.35
2024-01-28T12:27:19.342Z,-2.22
2024-01-28T12:29:48.403Z,-2.09
2024-01-28T12:32:17.116Z,-2.11
2024-01-28T12:34:45.740Z,-2.12
2024-01-28T12:37:14.509Z,-2.07
2024-01-28T12:39:43.096Z,-2.06
2024-01-28T12:42:11.777Z,-2.02
2024-01-28T12:44:40.333Z,-2.13
2024-01-28T12:47:08.917Z,-2.15
2024-01-28T12:49:37.564Z,-2.25
2024-01-28T12:52:06.682Z,-2.24
2024-01-28T12:54:35.442Z,-2.28
2024-01-28T12:57:04.108Z,-2.22
2024-01-28T12:59:32.518Z,-2.23
2024-01-28T13:02:01.323Z,-2.18
2024-01-28T13:04:31.059Z,-2.24
2024-01-28T13:06:59.663Z,-2.20
2024-01-28T13:09:28.846Z,-2.19
2024-01-28T13:11:57.548Z,-2.25
2024-01-28T13:14:26.077Z,-1.87
2024-01-28T13:16:54.669Z,-1.93
2024-01-28T13:19:23.384Z,-1.96
2024-01-28T13:21:52.181Z,-1.99
2024-01-28T13:24:22.372Z,-1.99
2024-01-28T13:26:52.747Z,-1.97
2024-01-28T13:29:24.632Z,-2.01
2024-01-28T13:31:53.292Z,-1.93
2024-01-28T13:34:22.223Z,-1.92
2024-01-28T13:36:50.921Z,-1.84
2024-01-28T13:39:19.764Z,-1.79
2024-01-28T13:41:48.410Z,-1.71
2024-01-28T13:44:16.996Z,-1.65
2024-01-28T13:46:45.630Z,-1.69
2024-01-28T13:49:14.284Z,-1.66
2024-01-28T13:51:42.969Z,-1.70
2024-01-28T13:54:10.990Z,-1.62
2024-01-28T13:56:39.650Z,-1.62
2024-01-28T13:59:08.416Z,-1.64
2024-01-28T14:01:37.219Z,-1.67
2024-01-28T14:04:05.944Z,-1.80
2024-01-28T14:06:34.795Z,-1.85
2024-01-28T14:09:04.275Z,-1.81
2024-01-28T14:11:34.826Z,-1.69
2024-01-28T14:14:04.243Z,-1.59
2024-01-28T14:16:32.711Z,-1.59
2024-01-28T14:19:01.348Z,-1.57
2024-01-28T14:21:31.212Z,-1.60
2024-01-28T14:24:00.144Z,-1.69
2024-01-28T14:26:28.759Z,-1.67
2024-01-28T14:28:57.385Z,-1.75
2024-01-28T14:31:25.935Z,-1.70
2024-01-28T14:33:55.627Z,-1.68
2024-01-28T14:36:24.926Z,-1.69
2024-01-28T14:38:53.609Z,-1.61
2024-01-28T14:41:22.233Z,-1.60
2024-01-28T14:43:50.898Z,-1.72
2024-01-28T14:46:19.478Z,-1.69
2024-01-28T14:48:48.198Z,-1.72
2024-01-28T14:51:16.907Z,-1.65
2024-01-28T14:53:45.853Z,-1.87
2024-01-28T14:56:14.491Z,-1.72
2024-01-28T14:58:43.075Z,-1.67
2024-01-28T15:01:11.761Z,-1.59
2024-01-28T15:03:40.475Z,-1.44
2024-01-28T15:06:10.232Z,-1.33
2024-01-28T15:08:40.861Z,-1.22
2024-01-28T15:11:10.991Z,-1.13
2024-01-28T15:13:39.690Z,-1.11
2024-01-28T15:16:09.144Z,-1.07
2024-01-28T15:18:38.110Z,-1.10
2024-01-28T15:21:06.989Z,-1.02
2024-01-28T15:23:35.659Z,-0.91
2024-01-28T15:26:04.303Z,-0.86
2024-01-28T15:28:39.080Z,-0.81
2024-01-28T15:31:08.866Z,-0.81
2024-01-28T15:33:37.855Z,-0.82
2024-01-28T15:36:06.912Z,-0.83
2024-01-28T15:38:35.668Z,-0.91
2024-01-28T15:41:05.883Z,-0.94
2024-01-28T15:43:34.557Z,-1.03
2024-01-28T15:46:06.056Z,-1.01
2024-01-28T15:48:36.172Z,-1.02
2024-01-28T15:51:05.836Z,-1.02
2024-01-28T15:53:34.425Z,-0.91
2024-01-28T15:56:04.122Z,-0.81
2024-01-28T15:58:33.176Z,-0.69
2024-01-28T16:01:01.895Z,-0.50
2024-01-28T16:03:30.512Z,-0.28
2024-01-28T16:05:59.293Z,-0.03
2024-01-28T16:08:28.238Z,0.04
2024-01-28T16:10:57.044Z,0.37
2024-01-28T16:13:29.935Z,0.38
2024-01-28T16:16:01.024Z,0.50
2024-01-28T16:18:29.870Z,0.69
2024-01-28T16:20:58.994Z,0.79
2024-01-28T16:23:27.643Z,0.81
2024-01-28T16:25:56.271Z,0.88
2024-01-28T16:28:25.139Z,0.92
2024-01-28T16:30:53.910Z,1.08
2024-01-28T16:33:22.666Z,0.95
2024-01-28T16:35:52.479Z,1.00
2024-01-28T16:38:21.089Z,1.08
2024-01-28T16:40:49.722Z,1.23
2024-01-28T16:43:18.261Z,1.36
2024-01-28T16:45:46.904Z,1.57
2024-01-28T16:48:17.443Z,1.51
2024-01-28T16:50:46.079Z,1.78
2024-01-28T16:53:14.662Z,1.91
2024-01-28T16:55:43.438Z,2.03
2024-01-28T16:58:12.157Z,2.04
2024-01-28T17:00:40.898Z,2.19
2024-01-28T17:03:09.728Z,2.25
2024-01-28T17:05:38.433Z,2.45
2024-01-28T17:08:07.067Z,2.55
2024-01-28T17:10:35.639Z,2.39
2024-01-28T17:13:04.248Z,2.47
2024-01-28T17:15:33.215Z,2.56
2024-01-28T17:18:02.044Z,2.55
2024-01-28T17:20:30.800Z,2.72
2024-01-28T17:22:59.382Z,2.67
2024-01-28T17:25:28.110Z,2.63
2024-01-28T17:27:57.025Z,2.63
2024-01-28T17:30:25.723Z,2.54
2024-01-28T17:32:54.332Z,2.63
2024-01-28T17:35:22.942Z,2.27
2024-01-28T17:37:51.956Z,2.57
2024-01-28T17:40:20.804Z,2.63
2024-01-28T17:42:49.785Z,2.55
2024-01-28T17:45:19.155Z,2.57
2024-01-28T17:47:48.260Z,2.51
2024-01-28T17:50:17.194Z,2.70
2024-01-28T17:52:45.834Z,2.91
2024-01-28T17:55:15.704Z,2.96
2024-01-28T17:57:44.361Z,3.07
2024-01-28T18:00:13.543Z,3.11
2024-01-28T18:02:42.170Z,3.12
2024-01-28T18:05:10.964Z,3.34
2024-01-28T18:07:39.600Z,3.33
2024-01-28T18:10:09.137Z,3.08
2024-01-28T18:12:37.713Z,3.28
2024-01-28T18:15:06.647Z,3.32
2024-01-28T18:17:35.322Z,3.37
2024-01-28T18:20:07.747Z,3.59
2024-01-28T18:22:37.582Z,3.87
2024-01-28T18:25:06.818Z,4.28
2024-01-28T18:27:34.952Z,4.30
2024-01-28T18:30:03.576Z,4.74
2024-01-28T18:32:32.140Z,4.92
2024-01-28T18:35:00.768Z,5.14
2024-01-28T18:37:29.362Z,5.27
2024-01-28T18:39:58.268Z,5.23
2024-01-28T18:42:26.897Z,5.39
2024-01-28T18:44:55.797Z,5.46
2024-01-28T18:47:28.720Z,5.15
2024-01-28T18:49:57.619Z,4.84
2024-01-28T18:52:26.343Z,4.58
2024-01-28T18:54:54.393Z,4.31
2024-01-28T18:57:23.150Z,4.22
2024-01-28T18:59:52.320Z,4.01
2024-01-28T19:02:21.987Z,3.80
2024-01-28T19:04:50.670Z,3.62
2024-01-28T19:07:19.372Z,3.60
2024-01-28T19:09:48.033Z,3.62
2024-01-28T19:12:16.750Z,3.45
2024-01-28T19:14:45.328Z,3.63
2024-01-28T19:17:15.156Z,3.73
2024-01-28T19:19:45.039Z,3.74
2024-01-28T19:22:14.262Z,3.97
2024-01-28T19:24:42.871Z,3.91
2024-01-28T19:27:11.482Z,3.85
2024-01-28T19:29:41.171Z,3.79
2024-01-28T19:32:09.679Z,3.82
2024-01-28T19:34:38.259Z,3.84
2024-01-28T19:37:07.209Z,4.21
2024-01-28T19:39:36.024Z,4.32
2024-01-28T19:42:04.893Z,4.27
2024-01-28T19:44:32.925Z,4.43
2024-01-28T19:47:01.569Z,4.55
2024-01-28T19:49:30.833Z,4.61
2024-01-28T19:51:59.579Z,4.73
2024-01-28T19:54:28.165Z,4.72
2024-01-28T19:56:56.706Z,4.83
2024-01-28T19:59:25.588Z,4.98
2024-01-28T20:01:55.576Z,5.09
2024-01-28T20:04:24.244Z,5.10
2024-01-28T20:06:53.116Z,5.32
2024-01-28T20:09:21.913Z,5.32
2024-01-28T20:11:50.543Z,5.37
2024-01-28T20:14:19.148Z,5.35
2024-01-28T20:16:47.860Z,5.38
2024-01-28T20:19:19.850Z,5.36
2024-01-28T20:21:51.674Z,5.40
2024-01-28T20:24:20.213Z,5.40
2024-01-28T20:26:48.786Z,5.49
2024-01-28T20:29:17.380Z,5.75
2024-01-28T20:31:47.265Z,5.77
2024-01-28T20:34:16.004Z,5.77
2024-01-28T20:36:46.638Z,5.92
2024-01-28T20:39:15.613Z,5.92
2024-01-28T20:41:46.106Z,6.00
2024-01-28T20:44:14.778Z,5.80
2024-01-28T20:46:47.743Z,5.81
2024-01-28T20:49:16.452Z,5.96
2024-01-28T20:51:45.289Z,5.84
2024-01-28T20:54:15.834Z,5.87
2024-01-28T20:56:44.509Z,5.80
2024-01-28T20:59:13.760Z,5.68
2024-01-28T21:01:42.389Z,5.78
2024-01-28T21:04:11.131Z,5.68
2024-01-28T21:06:39.786Z,5.86
2024-01-28T21:09:08.314Z,5.80
2024-01-28T21:11:36.982Z,5.75
2024-01-28T21:14:06.091Z,5.79
2024-01-28T21:16:34.718Z,5.79
2024-01-28T21:19:03.363Z,5.95
2024-01-28T21:21:31.958Z,5.83
2024-01-28T21:24:00.577Z,5.94
2024-01-28T21:26:29.114Z,5.95
2024-01-28T21:28:57.685Z,5.98
2024-01-28T21:31:26.379Z,5.87
2024-01-28T21:33:55.706Z,5.98
2024-01-28T21:36:24.662Z,6.01
2024-01-28T21:38:53.409Z,5.99
2024-01-28T21:41:22.052Z,6.09
2024-01-28T21:43:50.700Z,6.06
2024-01-28T21:46:19.371Z,6.21
2024-01-28T21:48:48.054Z,6.01
2024-01-28T21:51:19.302Z,6.22
2024-01-28T21:53:49.255Z,6.12
2024-01-28T21:56:17.822Z,6.10
2024-01-28T21:58:46.457Z,5.89
2024-01-28T22:01:14.689Z,5.94
2024-01-28T22:03:43.371Z,6.02
2024-01-28T22:06:12.630Z,6.31
2024-01-28T22:08:41.187Z,5.84
2024-01-28T22:11:09.692Z,6.00
2024-01-28T22:13:38.230Z,5.91
2024-01-28T22:16:07.166Z,5.68
2024-01-28T22:18:37.429Z,5.62
2024-01-28T22:21:06.161Z,5.61
2024-01-28T22:23:34.808Z,5.83
2024-01-28T22:26:03.401Z,5.92
2024-01-28T22:28:32.391Z,5.89
2024-01-28T22:31:01.084Z,5.91
2024-01-28T22:33:29.950Z,5.89
2024-01-28T22:35:58.835Z,5.72
2024-01-28T22:38:27.454Z,5.70
2024-01-28T22:40:56.555Z,5.70
2024-01-28T22:43:26.960Z,5.52
2024-01-28T22:45:55.018Z,5.26
2024-01-28T22:48:23.762Z,4.92
2024-01-28T22:50:52.406Z,5.09
2024-01-28T22:53:21.014Z,5.10
2024-01-28T22:55:49.592Z,5.14
2024-01-28T22:58:18.278Z,4.98
2024-01-28T23:00:46.931Z,4.78
2024-01-28T23:03:15.646Z,4.66
2024-01-28T23:05:44.297Z,4.63
2024-01-28T23:08:13.355Z,4.41
2024-01-28T23:10:41.914Z,4.37
2024-01-28T23:13:12.038Z,4.29
2024-01-28T23:15:40.682Z,4.29
2024-01-28T23:18:09.405Z,4.12
2024-01-28T23:20:38.901Z,4.05
2024-01-28T23:23:07.757Z,4.11
2024-01-28T23:25:36.321Z,4.02
2024-01-28T23:28:05.109Z,3.85
2024-01-28T23:30:33.799Z,3.74
2024-01-28T23:33:05.040Z,3.61
2024-01-28T23:35:33.740Z,3.61
2024-01-28T23:38:02.405Z,3.45
2024-01-28T23:40:31.340Z,3.56
2024-01-28T23:43:01.404Z,3.45
2024-01-28T23:45:30.026Z,3.36
2024-01-28T23:47:58.610Z,3.34
2024-01-28T23:50:27.955Z,3.22
2024-01-28T23:52:57.217Z,3.06
2024-01-28T23:55:25.781Z,2.92
2024-01-28T23:57:54.456Z,2.74
